TimeMDT,TemperatureF,Dew PointF,Humidity,Sea Level PressureIn,VisibilityMPH,Wind Direction,Wind SpeedMPH,Gust SpeedMPH,PrecipitationIn,Events,Conditions,WindDirDegrees,DateUTC
12:15 AM,21.2,14.0,74,30.30,10.0,WSW,8.1,-,N/A,,Clear,240,2014-04-14 06:15:00
12:35 AM,21.2,14.0,74,30.30,10.0,SW,9.2,-,N/A,,Clear,230,2014-04-14 06:35:00
12:55 AM,21.2,15.8,80,30.30,10.0,WSW,8.1,-,N/A,,Clear,240,2014-04-14 06:55:00
1:15 AM,21.2,12.2,68,30.30,10.0,SW,11.5,-,N/A,,Clear,230,2014-04-14 07:15:00
1:35 AM,21.2,12.2,68,30.29,10.0,SW,11.5,-,N/A,,Clear,230,2014-04-14 07:35:00
1:55 AM,21.2,12.2,68,30.29,10.0,SW,10.4,-,N/A,,Clear,230,2014-04-14 07:55:00
2:15 AM,21.2,14.0,74,30.29,10.0,SW,9.2,-,N/A,,Clear,230,2014-04-14 08:15:00
2:35 AM,21.2,12.2,68,30.28,10.0,WSW,6.9,-,N/A,,Clear,240,2014-04-14 08:35:00
2:55 AM,21.2,14.0,74,30.28,10.0,SW,6.9,-,N/A,,Clear,230,2014-04-14 08:55:00
3:15 AM,21.2,12.2,68,30.27,10.0,WSW,5.8,-,N/A,,Clear,240,2014-04-14 09:15:00
3:35 AM,21.2,10.4,63,30.27,10.0,WSW,4.6,-,N/A,,Clear,240,2014-04-14 09:35:00
3:55 AM,21.2,10.4,63,30.26,10.0,WSW,6.9,-,N/A,,Clear,250,2014-04-14 09:55:00
4:15 AM,21.2,12.2,68,30.26,10.0,WSW,3.5,-,N/A,,Clear,240,2014-04-14 10:15:00
4:35 AM,21.2,8.6,58,30.26,10.0,SSW,4.6,-,N/A,,Clear,210,2014-04-14 10:35:00
4:55 AM,21.2,8.6,58,30.25,10.0,West,4.6,-,N/A,,Clear,270,2014-04-14 10:55:00
5:15 AM,21.2,6.8,54,30.24,10.0,Calm,Calm,-,N/A,,Clear,0,2014-04-14 11:15:00
5:35 AM,23.0,6.8,50,30.24,10.0,WNW,8.1,-,N/A,,Clear,290,2014-04-14 11:35:00
5:55 AM,21.2,5.0,50,30.23,10.0,Calm,Calm,-,N/A,,Clear,0,2014-04-14 11:55:00
6:15 AM,23.0,8.6,54,30.23,10.0,WSW,5.8,-,N/A,,Clear,240,2014-04-14 12:15:00
6:35 AM,24.8,6.8,46,30.24,10.0,Calm,Calm,-,N/A,,Clear,0,2014-04-14 12:35:00
6:55 AM,24.8,3.2,40,30.24,10.0,Calm,Calm,-,N/A,,Clear,0,2014-04-14 12:55:00
7:15 AM,24.8,3.2,40,30.24,10.0,WNW,4.6,-,N/A,,Clear,300,2014-04-14 13:15:00
7:35 AM,26.6,5.0,40,30.23,10.0,North,4.6,-,N/A,,Clear,10,2014-04-14 13:35:00
7:55 AM,26.6,6.8,43,30.23,10.0,ESE,5.8,-,N/A,,Clear,120,2014-04-14 13:55:00
8:15 AM,26.6,5.0,40,30.24,10.0,Calm,Calm,-,N/A,,Clear,0,2014-04-14 14:15:00
8:35 AM,30.2,5.0,34,30.23,10.0,WNW,10.4,-,N/A,,Clear,290,2014-04-14 14:35:00
8:55 AM,30.2,3.2,32,30.23,10.0,West,12.7,20.7,N/A,,Clear,280,2014-04-14 14:55:00
9:15 AM,32.0,5.0,32,30.22,10.0,West,6.9,17.3,N/A,,Clear,270,2014-04-14 15:15:00
9:35 AM,30.2,6.8,37,30.23,10.0,North,5.8,-,N/A,,Clear,350,2014-04-14 15:35:00
9:55 AM,30.2,10.4,44,30.23,10.0,Calm,Calm,-,N/A,,Clear,0,2014-04-14 15:55:00
10:15 AM,33.8,10.4,38,30.22,10.0,NNW,5.8,-,N/A,,Clear,330,2014-04-14 16:15:00
10:35 AM,32.0,12.2,44,30.22,10.0,NNE,4.6,-,N/A,,Clear,30,2014-04-14 16:35:00
10:55 AM,32.0,14.0,48,30.21,10.0,NE,3.5,-,N/A,,Clear,50,2014-04-14 16:55:00
11:15 AM,33.8,15.8,48,30.21,10.0,ENE,5.8,-,N/A,,Clear,60,2014-04-14 17:15:00
11:35 AM,33.8,15.8,48,30.20,10.0,NNE,4.6,-,N/A,,Clear,20,2014-04-14 17:35:00
11:55 AM,35.6,17.6,48,30.19,10.0,Calm,Calm,-,N/A,,Clear,0,2014-04-14 17:55:00
12:15 PM,39.2,10.4,31,30.17,10.0,NNE,6.9,-,N/A,,Clear,20,2014-04-14 18:15:00
12:35 PM,39.2,14.0,36,30.16,10.0,South,3.5,-,N/A,,Clear,180,2014-04-14 18:35:00
12:55 PM,37.4,19.4,48,30.15,10.0,ENE,12.7,-,N/A,,Clear,70,2014-04-14 18:55:00
1:15 PM,39.2,14.0,36,30.14,10.0,SSE,13.8,-,N/A,,Clear,160,2014-04-14 19:15:00
1:35 PM,39.2,15.8,39,30.14,10.0,SSE,13.8,-,N/A,,Clear,150,2014-04-14 19:35:00
1:55 PM,39.2,15.8,39,30.14,10.0,SE,12.7,-,N/A,,Clear,140,2014-04-14 19:55:00
2:15 PM,39.2,17.6,42,30.13,10.0,SE,11.5,-,N/A,,Clear,130,2014-04-14 20:15:00
2:35 PM,41.0,17.6,39,30.12,10.0,SE,12.7,-,N/A,,Clear,140,2014-04-14 20:35:00
2:55 PM,42.8,15.8,34,30.11,10.0,SE,10.4,-,N/A,,Clear,130,2014-04-14 20:55:00
3:15 PM,42.8,17.6,36,30.11,10.0,SSE,11.5,-,N/A,,Clear,150,2014-04-14 21:15:00
3:35 PM,42.8,19.4,39,30.09,10.0,SSE,12.7,-,N/A,,Clear,150,2014-04-14 21:35:00
3:55 PM,42.8,17.6,36,30.08,10.0,SE,13.8,-,N/A,,Clear,130,2014-04-14 21:55:00
4:15 PM,44.6,17.6,34,30.07,10.0,ESE,9.2,-,N/A,,Clear,120,2014-04-14 22:15:00
4:35 PM,44.6,17.6,34,30.06,10.0,SSE,10.4,-,N/A,,Clear,150,2014-04-14 22:35:00
4:55 PM,44.6,21.2,39,30.05,10.0,ESE,10.4,-,N/A,,Clear,110,2014-04-14 22:55:00
5:15 PM,46.4,21.2,37,30.04,10.0,ESE,10.4,-,N/A,,Clear,120,2014-04-14 23:15:00
5:35 PM,46.4,21.2,37,30.03,10.0,ESE,10.4,-,N/A,,Clear,120,2014-04-14 23:35:00
5:55 PM,46.4,21.2,37,30.03,10.0,ESE,10.4,-,N/A,,Clear,110,2014-04-14 23:55:00
6:15 PM,46.4,23.0,40,30.02,10.0,ESE,8.1,-,N/A,,Clear,110,2014-04-15 00:15:00
6:35 PM,44.6,24.8,46,30.02,10.0,East,12.7,-,N/A,,Clear,100,2014-04-15 00:35:00
6:55 PM,46.4,24.8,43,30.01,10.0,SSE,8.1,-,N/A,,Clear,150,2014-04-15 00:55:00
7:15 PM,46.4,21.2,37,30.01,10.0,SE,4.6,-,N/A,,Clear,140,2014-04-15 01:15:00
7:35 PM,46.4,15.8,29,30.00,10.0,WSW,8.1,-,N/A,,Clear,240,2014-04-15 01:35:00
7:55 PM,44.6,17.6,34,30.00,10.0,West,6.9,-,N/A,,Clear,270,2014-04-15 01:55:00
8:15 PM,42.8,19.4,39,30.00,10.0,West,6.9,-,N/A,,Clear,280,2014-04-15 02:15:00
8:35 PM,41.0,19.4,42,30.00,10.0,WNW,5.8,-,N/A,,Clear,300,2014-04-15 02:35:00
8:55 PM,37.4,21.2,52,30.00,10.0,WNW,3.5,-,N/A,,Clear,300,2014-04-15 02:55:00
9:15 PM,35.6,21.2,56,30.00,10.0,North,4.6,-,N/A,,Clear,350,2014-04-15 03:15:00
9:35 PM,32.0,23.0,69,29.99,10.0,West,3.5,-,N/A,,Clear,280,2014-04-15 03:35:00
9:55 PM,37.4,21.2,52,29.99,10.0,NNW,9.2,-,N/A,,Clear,330,2014-04-15 03:55:00
10:15 PM,42.8,17.6,36,29.99,10.0,WNW,4.6,-,N/A,,Clear,300,2014-04-15 04:15:00
10:35 PM,42.8,15.8,34,29.98,10.0,WNW,9.2,-,N/A,,Clear,300,2014-04-15 04:35:00
10:55 PM,44.6,12.2,27,29.97,10.0,WNW,11.5,18.4,N/A,,Clear,300,2014-04-15 04:55:00
11:15 PM,44.6,12.2,27,29.97,10.0,WNW,6.9,18.4,N/A,,Clear,290,2014-04-15 05:15:00
11:35 PM,44.6,12.2,27,29.96,10.0,West,10.4,17.3,N/A,,Clear,280,2014-04-15 05:35:00
11:55 PM,44.6,10.4,25,29.95,10.0,West,15.0,20.7,N/A,,Clear,260,2014-04-15 05:55:00